createdAt,value
2017-06-28T00:00:23.173Z,10.98
2017-06-28T00:02:51.481Z,9.98
2017-06-28T00:05:19.769Z,12.08
2017-06-28T00:07:48.085Z,12.16
2017-06-28T00:10:16.388Z,10.22
2017-06-28T00:12:44.721Z,10.00
2017-06-28T00:15:13.012Z,12.02
2017-06-28T00:17:41.306Z,9.44
2017-06-28T00:20:09.616Z,9.84
2017-06-28T00:22:37.908Z,10.50
2017-06-28T00:25:06.217Z,9.54
2017-06-28T00:27:34.513Z,13.44
2017-06-28T00:30:02.829Z,9.50
2017-06-28T00:32:31.120Z,11.02
2017-06-28T00:34:59.412Z,9.60
2017-06-28T00:37:27.729Z,9.48
2017-06-28T00:39:56.018Z,9.30
2017-06-28T00:42:24.320Z,8.72
2017-06-28T00:44:52.604Z,9.16
2017-06-28T00:47:20.917Z,9.08
2017-06-28T00:49:49.205Z,8.94
2017-06-28T00:52:17.494Z,9.42
2017-06-28T00:54:45.804Z,9.58
2017-06-28T00:57:14.108Z,9.90
2017-06-28T00:59:42.428Z,11.28
2017-06-28T01:02:10.717Z,8.48
2017-06-28T01:04:39.032Z,8.30
2017-06-28T01:07:07.316Z,9.52
2017-06-28T01:09:35.605Z,9.50
2017-06-28T01:12:03.913Z,11.24
2017-06-28T01:14:32.206Z,7.32
2017-06-28T01:17:00.514Z,7.82
2017-06-28T01:19:28.800Z,7.24
2017-06-28T01:21:57.118Z,6.34
2017-06-28T01:24:25.409Z,5.44
2017-06-28T01:26:53.697Z,5.70
2017-06-28T01:29:22.009Z,5.98
2017-06-28T01:31:50.302Z,6.84
2017-06-28T01:34:18.613Z,3.74
2017-06-28T01:36:46.923Z,5.02
2017-06-28T01:39:15.238Z,4.58
2017-06-28T01:41:43.532Z,3.64
2017-06-28T01:44:11.831Z,2.60
2017-06-28T01:46:40.144Z,3.14
2017-06-28T01:49:08.432Z,2.48
2017-06-28T01:51:36.736Z,2.42
2017-06-28T01:54:05.029Z,3.70
2017-06-28T01:56:33.336Z,3.78
2017-06-28T01:59:01.625Z,3.38
2017-06-28T02:01:29.916Z,2.74
2017-06-28T02:03:58.225Z,3.44
2017-06-28T02:06:26.512Z,3.28
2017-06-28T02:08:54.825Z,3.04
2017-06-28T02:11:23.113Z,4.30
2017-06-28T02:13:51.437Z,3.56
2017-06-28T02:16:19.730Z,3.78
2017-06-28T02:18:48.020Z,2.68
2017-06-28T02:21:16.336Z,4.52
2017-06-28T02:23:44.633Z,4.32
2017-06-28T02:26:12.957Z,4.22
2017-06-28T02:28:41.251Z,4.68
2017-06-28T02:31:09.572Z,5.04
2017-06-28T02:33:37.849Z,5.88
2017-06-28T02:36:06.141Z,3.24
2017-06-28T02:38:34.452Z,4.86
2017-06-28T02:41:02.732Z,5.56
2017-06-28T02:43:31.041Z,7.40
2017-06-28T02:45:59.330Z,5.52
2017-06-28T02:48:27.641Z,4.36
2017-06-28T02:50:55.924Z,4.84
2017-06-28T02:53:24.214Z,2.68
2017-06-28T02:55:52.528Z,3.38
2017-06-28T02:58:20.820Z,2.26
2017-06-28T03:00:49.125Z,2.68
2017-06-28T03:03:17.413Z,3.68
2017-06-28T03:05:45.733Z,3.12
2017-06-28T03:08:14.033Z,3.00
2017-06-28T03:10:42.324Z,2.78
2017-06-28T03:13:10.645Z,5.08
2017-06-28T03:15:38.933Z,2.96
2017-06-28T03:18:07.254Z,3.16
2017-06-28T03:20:35.544Z,3.32
2017-06-28T03:23:03.856Z,3.16
2017-06-28T03:25:32.146Z,5.42
2017-06-28T03:28:00.460Z,4.58
2017-06-28T03:30:28.744Z,3.16
2017-06-28T03:32:57.057Z,3.78
2017-06-28T03:35:25.360Z,3.90
2017-06-28T03:37:53.644Z,4.58
2017-06-28T03:40:21.955Z,3.36
2017-06-28T03:42:50.240Z,4.76
2017-06-28T03:45:18.548Z,3.94
2017-06-28T03:47:46.837Z,2.98
2017-06-28T03:50:15.152Z,3.60
2017-06-28T03:52:43.441Z,5.58
2017-06-28T03:55:11.731Z,4.92
2017-06-28T03:57:40.045Z,4.86
2017-06-28T04:00:08.337Z,3.04
2017-06-28T04:02:36.649Z,3.68
2017-06-28T04:05:04.941Z,4.12
2017-06-28T04:07:33.252Z,4.82
2017-06-28T04:10:01.537Z,3.54
2017-06-28T04:12:29.856Z,2.60
2017-06-28T04:14:58.148Z,3.48
2017-06-28T04:17:26.441Z,2.74
2017-06-28T04:19:54.752Z,3.30
2017-06-28T04:22:23.041Z,6.40
2017-06-28T04:24:51.349Z,3.28
2017-06-28T04:27:19.637Z,5.30
2017-06-28T04:29:47.953Z,3.54
2017-06-28T04:32:16.244Z,3.34
2017-06-28T04:34:44.553Z,4.24
2017-06-28T04:37:12.845Z,3.02
2017-06-28T04:39:41.137Z,3.20
2017-06-28T04:42:09.457Z,3.10
2017-06-28T04:44:37.751Z,5.48
2017-06-28T04:47:06.061Z,3.82
2017-06-28T04:49:34.353Z,4.80
2017-06-28T04:52:02.665Z,7.00
2017-06-28T04:54:30.972Z,4.64
2017-06-28T04:56:59.281Z,7.32
2017-06-28T04:59:27.574Z,6.00
2017-06-28T05:01:55.856Z,5.58
2017-06-28T05:04:24.171Z,5.46
2017-06-28T05:06:52.496Z,5.26
2017-06-28T05:09:20.805Z,7.78
2017-06-28T05:11:49.085Z,7.16
2017-06-28T05:14:17.392Z,7.52
2017-06-28T05:16:45.697Z,6.92
2017-06-28T05:19:14.019Z,7.76
2017-06-28T05:21:42.337Z,5.84
2017-06-28T05:24:10.632Z,6.64
2017-06-28T05:26:38.936Z,6.16
2017-06-28T05:29:07.225Z,7.78
2017-06-28T05:31:35.536Z,9.00
2017-06-28T05:34:03.826Z,8.66
2017-06-28T05:36:32.129Z,9.20
2017-06-28T05:39:00.417Z,8.30
2017-06-28T05:41:28.727Z,6.44
2017-06-28T05:43:57.021Z,7.12
2017-06-28T05:46:25.308Z,7.76
2017-06-28T05:48:53.613Z,8.60
2017-06-28T05:51:21.906Z,10.62
2017-06-28T05:53:50.216Z,8.00
2017-06-28T05:56:18.528Z,6.66
2017-06-28T05:58:46.852Z,6.86
2017-06-28T06:01:15.148Z,8.52
2017-06-28T06:03:43.572Z,8.86
2017-06-28T06:06:11.875Z,7.68
2017-06-28T06:08:40.167Z,6.48
2017-06-28T06:11:08.480Z,5.80
2017-06-28T06:13:36.761Z,7.06
2017-06-28T06:16:05.068Z,8.10
2017-06-28T06:18:33.357Z,7.88
2017-06-28T06:21:01.743Z,6.86
2017-06-28T06:23:30.049Z,7.26
2017-06-28T06:25:58.336Z,8.00
2017-06-28T06:28:26.637Z,6.56
2017-06-28T06:30:54.936Z,6.80
2017-06-28T06:33:23.240Z,6.36
2017-06-28T06:35:51.520Z,6.44
2017-06-28T06:38:19.838Z,6.32
2017-06-28T06:40:48.120Z,7.00
2017-06-28T06:43:16.404Z,6.14
2017-06-28T06:45:44.733Z,8.24
2017-06-28T06:48:13.026Z,6.18
2017-06-28T06:50:41.345Z,5.60
2017-06-28T06:53:09.629Z,6.78
2017-06-28T06:55:37.940Z,5.00
2017-06-28T06:58:06.225Z,4.98
2017-06-28T07:00:34.512Z,7.40
2017-06-28T07:03:02.829Z,5.68
2017-06-28T07:05:31.120Z,6.76
2017-06-28T07:07:59.425Z,4.92
2017-06-28T07:10:27.721Z,4.30
2017-06-28T07:12:56.037Z,5.18
2017-06-28T07:15:24.324Z,4.82
2017-06-28T07:17:52.612Z,4.86
2017-06-28T07:20:20.922Z,6.86
2017-06-28T07:22:49.213Z,5.46
2017-06-28T07:25:17.529Z,5.74
2017-06-28T07:27:45.822Z,9.28
2017-06-28T07:30:14.153Z,4.88
2017-06-28T07:32:42.449Z,6.34
2017-06-28T07:35:10.780Z,5.72
2017-06-28T07:37:39.077Z,5.30
2017-06-28T07:40:07.364Z,5.54
2017-06-28T07:42:35.672Z,5.52
2017-06-28T07:45:03.961Z,5.06
2017-06-28T07:47:32.271Z,5.32
2017-06-28T07:50:00.569Z,5.54
2017-06-28T07:52:28.884Z,5.86
2017-06-28T07:54:57.172Z,5.30
2017-06-28T07:57:25.493Z,5.70
2017-06-28T07:59:53.777Z,4.84
2017-06-28T08:02:22.070Z,4.30
2017-06-28T08:04:50.389Z,4.66
2017-06-28T08:07:18.684Z,3.10
2017-06-28T08:09:46.997Z,4.26
2017-06-28T08:12:15.306Z,3.74
2017-06-28T08:14:43.621Z,5.46
2017-06-28T08:17:11.922Z,2.34
2017-06-28T08:19:40.268Z,2.40
2017-06-28T08:22:08.552Z,2.46
2017-06-28T08:24:36.842Z,2.56
2017-06-28T08:27:05.153Z,2.60
2017-06-28T08:29:32.682Z,2.80
2017-06-28T08:32:01.008Z,2.52
2017-06-28T08:34:29.296Z,2.78
2017-06-28T08:36:57.616Z,2.60
2017-06-28T08:39:25.908Z,2.72
2017-06-28T08:41:54.236Z,2.50
2017-06-28T08:44:22.536Z,2.76
2017-06-28T08:46:50.821Z,3.42
2017-06-28T08:49:19.211Z,2.88
2017-06-28T08:51:47.512Z,3.76
2017-06-28T08:54:15.830Z,2.94
2017-06-28T08:56:44.130Z,3.08
2017-06-28T08:59:12.452Z,3.12
2017-06-28T09:01:40.746Z,3.22
2017-06-28T09:04:09.069Z,3.20
2017-06-28T09:06:37.352Z,3.02
2017-06-28T09:09:05.752Z,3.32
2017-06-28T09:11:34.063Z,3.48
2017-06-28T09:14:02.350Z,3.74
2017-06-28T09:16:30.657Z,3.18
2017-06-28T09:18:58.948Z,4.24
2017-06-28T09:21:27.256Z,3.48
2017-06-28T09:23:55.557Z,3.40
2017-06-28T09:26:23.884Z,3.26
2017-06-28T09:28:52.176Z,3.70
2017-06-28T09:31:20.477Z,2.94
2017-06-28T09:33:48.785Z,3.32
2017-06-28T09:36:17.080Z,3.06
2017-06-28T09:38:45.397Z,2.66
2017-06-28T09:41:13.697Z,3.80
2017-06-28T09:43:42.012Z,3.02
2017-06-28T09:46:10.309Z,2.56
2017-06-28T09:48:38.627Z,3.44
2017-06-28T09:51:06.916Z,2.94
2017-06-28T09:53:35.205Z,2.52
2017-06-28T09:56:03.513Z,3.18
2017-06-28T09:58:31.801Z,2.88
2017-06-28T10:01:00.122Z,3.28
2017-06-28T10:03:28.413Z,2.96
2017-06-28T10:05:56.721Z,3.02
2017-06-28T10:08:25.014Z,3.14
2017-06-28T10:10:53.337Z,3.46
2017-06-28T10:13:21.628Z,5.76
2017-06-28T10:15:49.908Z,3.82
2017-06-28T10:18:18.224Z,3.38
2017-06-28T10:20:46.512Z,3.60
2017-06-28T10:23:14.830Z,3.52
2017-06-28T10:25:43.122Z,3.16
2017-06-28T10:28:11.451Z,2.90
2017-06-28T10:30:39.748Z,3.32
2017-06-28T10:33:08.038Z,3.26
2017-06-28T10:35:36.348Z,4.14
2017-06-28T10:38:04.633Z,3.12
2017-06-28T10:40:32.944Z,3.04
2017-06-28T10:43:01.254Z,4.62
2017-06-28T10:45:29.571Z,3.28
2017-06-28T10:47:57.869Z,3.92
2017-06-28T10:50:26.201Z,4.52
2017-06-28T10:52:54.493Z,4.92
2017-06-28T10:55:22.776Z,3.80
2017-06-28T10:57:51.088Z,2.70
2017-06-28T11:00:19.388Z,3.98
2017-06-28T11:02:47.700Z,3.40
2017-06-28T11:05:16.020Z,3.10
2017-06-28T11:07:43.585Z,4.66
2017-06-28T11:10:11.888Z,2.80
2017-06-28T11:12:40.213Z,3.02
2017-06-28T11:15:08.497Z,3.34
2017-06-28T11:17:36.780Z,3.24
2017-06-28T11:20:05.089Z,4.18
2017-06-28T11:22:33.384Z,4.24
2017-06-28T11:25:01.692Z,4.28
2017-06-28T11:27:29.989Z,3.34
2017-06-28T11:29:58.325Z,3.60
2017-06-28T11:32:26.617Z,3.70
2017-06-28T11:34:54.904Z,3.60
2017-06-28T11:37:23.214Z,3.62
2017-06-28T11:39:50.741Z,4.06
2017-06-28T11:42:19.057Z,4.04
2017-06-28T11:44:47.357Z,3.98
2017-06-28T11:47:15.676Z,4.22
2017-06-28T11:49:43.970Z,4.56
2017-06-28T11:52:12.268Z,3.98
2017-06-28T11:54:40.611Z,4.20
2017-06-28T11:57:08.897Z,3.80
2017-06-28T11:59:37.213Z,3.92
2017-06-28T12:02:05.501Z,3.54
2017-06-28T12:04:33.816Z,3.28
2017-06-28T12:07:02.101Z,3.98
2017-06-28T12:09:30.393Z,3.40
2017-06-28T12:11:58.699Z,2.94
2017-06-28T12:14:26.989Z,3.00
2017-06-28T12:16:55.298Z,3.32
2017-06-28T12:19:23.589Z,3.34
2017-06-28T12:21:51.901Z,3.46
2017-06-28T12:24:20.185Z,3.66
2017-06-28T12:26:48.473Z,4.02
2017-06-28T12:29:16.785Z,3.34
2017-06-28T12:31:45.082Z,4.08
2017-06-28T12:34:13.407Z,3.30
2017-06-28T12:36:41.696Z,6.46
2017-06-28T12:39:10.009Z,3.30
2017-06-28T12:41:38.296Z,3.60
2017-06-28T12:44:06.584Z,3.20
2017-06-28T12:46:34.892Z,3.62
2017-06-28T12:49:03.183Z,4.02
2017-06-28T12:51:31.500Z,3.20
2017-06-28T12:53:59.789Z,3.18
2017-06-28T12:56:28.105Z,3.22
2017-06-28T12:58:56.396Z,3.16
2017-06-28T13:01:24.721Z,3.42
2017-06-28T13:03:53.005Z,3.56
2017-06-28T13:06:21.296Z,3.12
2017-06-28T13:08:49.602Z,3.00
2017-06-28T13:11:17.893Z,3.50
2017-06-28T13:13:46.205Z,3.42
2017-06-28T13:16:14.512Z,3.22
2017-06-28T13:18:42.833Z,3.40
2017-06-28T13:21:11.125Z,3.54
2017-06-28T13:23:39.413Z,3.40
2017-06-28T13:26:07.725Z,3.64
2017-06-28T13:28:36.013Z,3.74
2017-06-28T13:31:04.323Z,6.26
2017-06-28T13:33:32.611Z,5.04
2017-06-28T13:36:00.953Z,4.24
2017-06-28T13:38:29.273Z,4.94
2017-06-28T13:40:57.588Z,11.12
2017-06-28T13:43:25.886Z,11.00
2017-06-28T13:45:54.176Z,14.42
2017-06-28T13:48:22.485Z,4.26
2017-06-28T13:50:50.768Z,3.70
2017-06-28T13:53:19.081Z,11.04
2017-06-28T13:55:47.384Z,4.10
2017-06-28T13:58:15.710Z,10.40
2017-06-28T14:00:44.020Z,5.12
2017-06-28T14:03:12.385Z,4.56
2017-06-28T14:05:40.672Z,6.08
2017-06-28T14:08:08.958Z,5.08
2017-06-28T14:10:37.268Z,8.76
2017-06-28T14:13:05.553Z,5.40
2017-06-28T14:15:33.861Z,3.78
2017-06-28T14:18:02.153Z,6.92
2017-06-28T14:20:30.461Z,5.20
2017-06-28T14:22:58.750Z,4.74
2017-06-28T14:25:27.076Z,4.86
2017-06-28T14:27:55.365Z,4.86
2017-06-28T14:30:23.657Z,6.94
2017-06-28T14:32:51.972Z,5.34
2017-06-28T14:35:20.260Z,5.16
2017-06-28T14:37:48.573Z,4.60
2017-06-28T14:40:16.877Z,4.48
2017-06-28T14:42:45.205Z,5.50
2017-06-28T14:45:13.509Z,4.96
2017-06-28T14:47:41.858Z,4.52
2017-06-28T14:50:10.158Z,7.26
2017-06-28T14:52:38.442Z,4.34
2017-06-28T14:55:06.752Z,5.34
2017-06-28T14:57:35.040Z,5.50
2017-06-28T15:00:03.353Z,6.42
2017-06-28T15:02:31.644Z,5.36
2017-06-28T15:04:59.969Z,4.78
2017-06-28T15:07:28.271Z,4.68
2017-06-28T15:09:56.586Z,6.68
2017-06-28T15:12:24.877Z,5.80
2017-06-28T15:14:53.177Z,4.20
2017-06-28T15:17:21.493Z,4.54
2017-06-28T15:19:49.782Z,4.72
2017-06-28T15:22:18.096Z,5.20
2017-06-28T15:24:46.393Z,5.04
2017-06-28T15:27:14.713Z,4.50
2017-06-28T15:29:43.009Z,5.26
2017-06-28T15:32:11.324Z,4.60
2017-06-28T15:34:39.608Z,4.72
2017-06-28T15:37:07.896Z,6.74
2017-06-28T15:39:36.205Z,4.42
2017-06-28T15:42:04.502Z,5.76
2017-06-28T15:44:32.813Z,4.74
2017-06-28T15:47:01.112Z,5.02
2017-06-28T15:49:29.430Z,4.50
2017-06-28T15:51:57.731Z,4.34
2017-06-28T15:54:32.836Z,5.68
2017-06-28T15:57:01.134Z,5.12
2017-06-28T15:59:29.448Z,4.70
2017-06-28T16:01:57.733Z,4.68
2017-06-28T16:04:26.020Z,4.32
2017-06-28T16:06:54.329Z,4.42
2017-06-28T16:09:22.617Z,4.70
2017-06-28T16:11:50.928Z,4.24
2017-06-28T16:14:19.217Z,4.20
2017-06-28T16:16:47.531Z,4.30
2017-06-28T16:19:15.833Z,4.26
2017-06-28T16:21:44.157Z,4.32
2017-06-28T16:24:12.450Z,4.60
2017-06-28T16:26:40.740Z,5.86
2017-06-28T16:29:09.079Z,4.74
2017-06-28T16:31:37.365Z,4.64
2017-06-28T16:34:05.681Z,4.98
2017-06-28T16:36:33.968Z,4.80
2017-06-28T16:39:02.277Z,4.44
2017-06-28T16:41:30.573Z,4.16
2017-06-28T16:43:58.899Z,5.30
2017-06-28T16:46:27.189Z,4.48
2017-06-28T16:48:55.481Z,5.22
2017-06-28T16:51:23.797Z,4.18
2017-06-28T16:53:52.093Z,6.06
2017-06-28T16:56:20.408Z,5.78
2017-06-28T16:58:48.697Z,4.58
2017-06-28T17:01:17.014Z,6.24
2017-06-28T17:03:45.310Z,4.38
2017-06-28T17:06:13.635Z,6.82
2017-06-28T17:08:41.948Z,5.04
2017-06-28T17:11:10.254Z,7.06
2017-06-28T17:13:38.566Z,7.18
2017-06-28T17:16:06.858Z,6.10
2017-06-28T17:18:35.173Z,5.94
2017-06-28T17:21:03.461Z,4.82
2017-06-28T17:23:31.777Z,5.82
2017-06-28T17:26:00.079Z,6.02
2017-06-28T17:28:28.421Z,5.86
2017-06-28T17:30:56.712Z,6.82
2017-06-28T17:33:25.005Z,4.70
2017-06-28T17:35:53.320Z,7.88
2017-06-28T17:38:21.611Z,5.70
2017-06-28T17:40:49.925Z,7.48
2017-06-28T17:43:18.223Z,6.88
2017-06-28T17:45:46.556Z,7.16
2017-06-28T17:48:14.852Z,5.86
2017-06-28T17:50:43.461Z,7.66
2017-06-28T17:53:11.796Z,10.76
2017-06-28T17:55:40.086Z,5.88
2017-06-28T17:58:08.402Z,7.06
2017-06-28T18:00:36.693Z,6.08
2017-06-28T18:03:05.012Z,17.08
2017-06-28T18:05:33.301Z,6.10
2017-06-28T18:08:01.633Z,10.54
2017-06-28T18:10:29.929Z,9.24
2017-06-28T18:12:58.234Z,35.92
2017-06-28T18:15:26.548Z,8.08
2017-06-28T18:17:54.835Z,8.56
2017-06-28T18:20:23.149Z,6.42
2017-06-28T18:22:51.440Z,21.78
2017-06-28T18:25:19.752Z,6.84
2017-06-28T18:27:48.041Z,5.20
2017-06-28T18:30:16.358Z,6.64
2017-06-28T18:32:44.674Z,13.56
2017-06-28T18:35:12.966Z,6.68
2017-06-28T18:37:40.513Z,5.08
2017-06-28T18:40:08.808Z,8.98
2017-06-28T18:42:37.112Z,5.08
2017-06-28T18:45:05.403Z,5.46
2017-06-28T18:47:33.718Z,5.22
2017-06-28T18:50:02.002Z,7.76
2017-06-28T18:52:30.314Z,5.88
2017-06-28T18:54:58.601Z,7.44
2017-06-28T18:57:26.914Z,7.48
2017-06-28T18:59:55.213Z,10.00
2017-06-28T19:02:23.524Z,6.82
2017-06-28T19:04:51.819Z,6.44
2017-06-28T19:07:20.149Z,5.70
2017-06-28T19:09:48.457Z,8.10
2017-06-28T19:12:16.749Z,5.96
2017-06-28T19:14:45.064Z,5.44
2017-06-28T19:17:13.365Z,6.22
2017-06-28T19:19:41.682Z,6.16
2017-06-28T19:22:09.973Z,5.08
2017-06-28T19:24:38.301Z,8.20
2017-06-28T19:27:06.596Z,5.92
2017-06-28T19:29:34.892Z,5.88
2017-06-28T19:32:03.205Z,4.92
2017-06-28T19:34:31.508Z,6.42
2017-06-28T19:36:59.862Z,5.70
2017-06-28T19:39:28.154Z,5.82
2017-06-28T19:41:56.464Z,7.58
2017-06-28T19:44:24.757Z,5.90
2017-06-28T19:46:53.106Z,5.40
2017-06-28T19:49:21.393Z,5.46
2017-06-28T19:51:49.684Z,6.24
2017-06-28T19:54:18.016Z,5.22
2017-06-28T19:56:46.314Z,7.16
2017-06-28T19:59:14.660Z,5.90
2017-06-28T20:01:42.957Z,5.58
2017-06-28T20:04:11.292Z,7.44
2017-06-28T20:06:39.576Z,6.02
2017-06-28T20:09:07.897Z,6.50
2017-06-28T20:11:36.900Z,6.74
2017-06-28T20:14:05.186Z,6.68
2017-06-28T20:16:33.506Z,8.06
2017-06-28T20:19:01.815Z,10.92
2017-06-28T20:21:30.145Z,6.52
2017-06-28T20:23:58.439Z,6.66
2017-06-28T20:26:26.750Z,6.02
2017-06-28T20:28:54.274Z,7.68
2017-06-28T20:31:22.605Z,6.84
2017-06-28T20:33:50.906Z,5.74
2017-06-28T20:36:19.198Z,5.98
2017-06-28T20:38:47.518Z,5.88
2017-06-28T20:41:15.046Z,6.30
2017-06-28T20:43:43.453Z,7.20
2017-06-28T20:46:11.864Z,6.46
2017-06-28T20:48:40.173Z,6.40
2017-06-28T20:51:08.464Z,6.48
2017-06-28T20:53:36.776Z,7.56
2017-06-28T20:56:05.069Z,19.72
2017-06-28T20:58:33.357Z,7.44
2017-06-28T21:01:01.693Z,20.34
2017-06-28T21:03:29.990Z,7.10
2017-06-28T21:05:58.300Z,7.62
2017-06-28T21:08:26.593Z,10.00
2017-06-28T21:10:54.896Z,7.88
2017-06-28T21:13:23.181Z,7.48
2017-06-28T21:15:51.506Z,9.38
2017-06-28T21:18:19.800Z,12.58
2017-06-28T21:20:48.124Z,8.22
2017-06-28T21:23:16.445Z,16.50
2017-06-28T21:25:44.759Z,26.16
2017-06-28T21:28:13.085Z,39.42
2017-06-28T21:30:41.378Z,8.80
2017-06-28T21:33:09.717Z,15.48
2017-06-28T21:35:38.008Z,67.16
2017-06-28T21:38:06.306Z,48.50
2017-06-28T21:40:34.621Z,30.56
2017-06-28T21:43:02.909Z,30.02
2017-06-28T21:45:31.238Z,27.16
2017-06-28T21:47:59.549Z,21.54
2017-06-28T21:50:27.862Z,16.18
2017-06-28T21:52:56.158Z,12.86
2017-06-28T21:55:24.477Z,15.10
2017-06-28T21:57:52.768Z,6.94
2017-06-28T22:00:21.062Z,10.50
2017-06-28T22:02:49.376Z,9.32
2017-06-28T22:05:17.665Z,7.18
2017-06-28T22:07:45.981Z,6.18
2017-06-28T22:10:14.286Z,6.20
2017-06-28T22:12:42.602Z,7.26
2017-06-28T22:15:10.895Z,6.34
2017-06-28T22:17:39.201Z,9.18
2017-06-28T22:20:07.493Z,7.88
2017-06-28T22:22:35.781Z,8.82
2017-06-28T22:25:04.117Z,7.62
2017-06-28T22:27:32.404Z,8.88
2017-06-28T22:30:00.720Z,7.52
2017-06-28T22:32:29.005Z,7.40
2017-06-28T22:34:57.317Z,6.64
2017-06-28T22:37:25.608Z,6.84
2017-06-28T22:39:53.920Z,6.28
2017-06-28T22:42:22.228Z,6.92
2017-06-28T22:44:50.521Z,7.04
2017-06-28T22:47:18.833Z,7.22
2017-06-28T22:49:47.125Z,9.04
2017-06-28T22:52:15.448Z,7.10
2017-06-28T22:54:43.748Z,7.38
2017-06-28T22:57:12.063Z,7.34
2017-06-28T22:59:40.344Z,6.88
2017-06-28T23:02:08.656Z,7.48
2017-06-28T23:04:36.937Z,6.48
2017-06-28T23:07:05.228Z,7.68
2017-06-28T23:09:33.537Z,6.92
2017-06-28T23:12:01.825Z,6.84
2017-06-28T23:14:30.145Z,6.60
2017-06-28T23:16:58.436Z,7.06
2017-06-28T23:19:26.747Z,7.88
2017-06-28T23:21:55.036Z,7.30
2017-06-28T23:24:23.361Z,6.56
2017-06-28T23:26:51.648Z,9.52
2017-06-28T23:29:19.931Z,6.66
2017-06-28T23:31:48.238Z,7.16
2017-06-28T23:34:16.537Z,7.02
2017-06-28T23:36:44.850Z,7.22
2017-06-28T23:39:13.141Z,7.26
2017-06-28T23:41:41.462Z,8.82
2017-06-28T23:44:09.749Z,7.30
2017-06-28T23:46:38.068Z,7.52
2017-06-28T23:49:06.361Z,7.00
2017-06-28T23:51:34.652Z,7.48
2017-06-28T23:54:02.965Z,7.36
2017-06-28T23:56:31.256Z,7.06
2017-06-28T23:58:59.571Z,6.92
